createdAt,value
2023-02-12T00:01:20.322Z,48.33
2023-02-12T00:03:50.750Z,43.45
2023-02-12T00:06:18.604Z,40.90
2023-02-12T00:08:49.532Z,34.63
2023-02-12T00:11:20.581Z,42.10
2023-02-12T00:13:51.252Z,55.33
2023-02-12T00:16:21.733Z,37.58
2023-02-12T00:18:51.950Z,43.72
2023-02-12T00:21:19.664Z,42.60
2023-02-12T00:23:47.320Z,44.08
2023-02-12T00:26:18.147Z,43.45
2023-02-12T00:28:50.100Z,33.85
2023-02-12T00:31:32.035Z,37.85
2023-02-12T00:34:00.654Z,36.58
2023-02-12T00:36:29.704Z,38.22
2023-02-12T00:38:57.471Z,41.00
2023-02-12T00:41:26.314Z,41.03
2023-02-12T00:43:54.351Z,40.80
2023-02-12T00:46:28.111Z,33.00
2023-02-12T00:49:00.528Z,31.85
2023-02-12T00:53:56.828Z,43.15
2023-02-12T00:56:24.652Z,49.55
2023-02-12T00:58:52.217Z,33.97
2023-02-12T01:01:20.068Z,44.25
2023-02-12T01:03:48.001Z,36.10
2023-02-12T01:06:16.203Z,32.03
2023-02-12T01:08:43.856Z,33.78
2023-02-12T01:11:12.671Z,30.08
2023-02-12T01:13:44.541Z,32.13
2023-02-12T01:16:19.598Z,26.98
2023-02-12T01:18:47.421Z,38.55
2023-02-12T01:21:20.058Z,29.70
2023-02-12T01:23:48.076Z,34.20
2023-02-12T01:26:16.436Z,25.45
2023-02-12T01:28:45.342Z,29.77
2023-02-12T01:31:17.048Z,20.77
2023-02-12T01:33:44.783Z,30.40
2023-02-12T01:36:12.644Z,26.33
2023-02-12T01:38:41.151Z,47.90
2023-02-12T01:41:13.956Z,29.98
2023-02-12T01:43:42.149Z,29.63
2023-02-12T01:46:10.916Z,34.47
2023-02-12T01:48:46.036Z,40.47
2023-02-12T01:51:17.143Z,36.25
2023-02-12T01:53:50.972Z,34.85
2023-02-12T01:56:19.103Z,36.92
2023-02-12T01:58:47.179Z,38.85
2023-02-12T02:01:18.624Z,36.15
2023-02-12T02:03:47.894Z,29.42
2023-02-12T02:09:13.388Z,40.10
2023-02-12T02:11:59.449Z,30.63
2023-02-12T02:14:32.881Z,31.80
2023-02-12T02:17:36.690Z,21.63
2023-02-12T02:20:04.271Z,35.63
2023-02-12T02:22:51.283Z,36.30
2023-02-12T02:25:44.299Z,35.13
2023-02-12T02:28:43.475Z,37.08
2023-02-12T02:31:18.746Z,36.75
2023-02-12T02:34:29.635Z,34.15
2023-02-12T02:37:30.943Z,32.45
2023-02-12T02:40:01.312Z,26.63
2023-02-12T02:42:42.679Z,24.58
2023-02-12T02:45:16.644Z,29.17
2023-02-12T02:48:03.955Z,28.00
2023-02-12T02:50:38.319Z,26.67
2023-02-12T02:53:08.899Z,37.63
2023-02-12T02:55:39.068Z,44.13
2023-02-12T02:58:10.634Z,29.65
2023-02-12T03:01:04.209Z,33.38
2023-02-12T03:03:36.295Z,26.75
2023-02-12T03:06:12.882Z,28.48
2023-02-12T03:08:43.247Z,37.65
2023-02-12T03:11:40.444Z,30.40
2023-02-12T03:14:20.348Z,27.35
2023-02-12T03:16:50.463Z,35.58
2023-02-12T03:19:20.557Z,34.55
2023-02-12T03:21:57.781Z,38.97
2023-02-12T03:24:43.689Z,54.22
2023-02-12T03:27:38.868Z,40.50
2023-02-12T03:30:07.267Z,41.83
2023-02-12T03:32:55.358Z,49.85
2023-02-12T03:35:32.700Z,38.40
2023-02-12T03:38:06.072Z,33.03
2023-02-12T03:40:35.261Z,42.50
2023-02-12T03:43:23.396Z,39.17
2023-02-12T03:46:04.108Z,43.78
2023-02-12T03:48:36.387Z,47.10
2023-02-12T03:51:13.318Z,33.97
2023-02-12T03:53:42.886Z,46.95
2023-02-12T03:56:13.127Z,46.72
2023-02-12T03:58:40.750Z,43.15
2023-02-12T04:01:08.850Z,48.42
2023-02-12T04:03:36.725Z,59.33
2023-02-12T04:06:04.787Z,43.90
2023-02-12T04:08:32.512Z,60.22
2023-02-12T04:11:03.008Z,77.40
2023-02-12T04:16:25.950Z,56.22
2023-02-12T04:18:53.833Z,109.13
2023-02-12T04:21:41.790Z,50.60
2023-02-12T04:24:34.975Z,65.95
2023-02-12T04:27:05.133Z,105.63
2023-02-12T04:29:39.452Z,48.23
2023-02-12T04:32:12.706Z,50.92
2023-02-12T04:34:55.199Z,49.13
2023-02-12T04:37:47.720Z,47.88
2023-02-12T04:40:16.781Z,45.97
2023-02-12T04:42:48.766Z,44.65
2023-02-12T04:45:22.099Z,44.47
2023-02-12T04:47:50.188Z,59.30
2023-02-12T04:50:18.936Z,50.17
2023-02-12T04:52:48.482Z,46.17
2023-02-12T04:55:16.192Z,59.95
2023-02-12T04:57:43.899Z,55.03
2023-02-12T05:00:13.281Z,56.30
2023-02-12T05:02:40.908Z,56.13
2023-02-12T05:05:08.778Z,39.22
2023-02-12T05:07:36.947Z,75.05
2023-02-12T05:10:04.851Z,79.40
2023-02-12T05:12:40.024Z,58.65
2023-02-12T05:15:09.483Z,66.35
2023-02-12T05:17:37.634Z,81.78
2023-02-12T05:20:06.221Z,85.40
2023-02-12T05:22:34.451Z,60.30
2023-02-12T05:25:02.656Z,55.15
2023-02-12T05:27:30.580Z,61.50
2023-02-12T05:29:59.829Z,65.20
2023-02-12T05:32:27.679Z,61.10
2023-02-12T05:34:55.351Z,48.25
2023-02-12T05:37:23.177Z,57.53
2023-02-12T05:39:50.866Z,54.47
2023-02-12T05:42:18.483Z,56.83
2023-02-12T05:44:48.658Z,64.75
2023-02-12T05:47:16.589Z,63.60
2023-02-12T05:49:44.310Z,57.75
2023-02-12T05:52:11.856Z,65.72
2023-02-12T05:54:50.673Z,50.25
2023-02-12T05:57:18.675Z,58.70
2023-02-12T05:59:46.665Z,54.53
2023-02-12T06:02:14.950Z,73.38
2023-02-12T06:04:42.709Z,94.40
2023-02-12T06:07:10.688Z,60.45
2023-02-12T06:09:38.713Z,31.33
2023-02-12T06:12:06.907Z,59.15
2023-02-12T06:14:34.885Z,73.45
2023-02-12T06:17:05.905Z,64.00
2023-02-12T06:19:34.252Z,25.10
2023-02-12T06:22:02.085Z,52.30
2023-02-12T06:27:01.414Z,47.13
2023-02-12T06:29:29.089Z,51.85
2023-02-12T06:31:57.309Z,45.85
2023-02-12T06:34:25.100Z,73.60
2023-02-12T06:36:52.920Z,66.32
2023-02-12T06:39:20.581Z,65.70
2023-02-12T06:41:48.298Z,46.80
2023-02-12T06:44:16.791Z,54.70
2023-02-12T06:46:44.590Z,36.10
2023-02-12T06:49:12.497Z,38.45
2023-02-12T06:51:41.531Z,38.80
2023-02-12T06:54:13.226Z,46.83
2023-02-12T06:56:40.959Z,28.45
2023-02-12T06:59:12.752Z,37.95
2023-02-12T07:01:41.563Z,22.38
2023-02-12T07:04:09.327Z,30.48
2023-02-12T07:06:37.071Z,27.75
2023-02-12T07:09:05.130Z,46.60
2023-02-12T07:11:37.788Z,39.95
2023-02-12T07:14:15.764Z,35.22
2023-02-12T07:16:43.600Z,28.42
2023-02-12T07:19:17.067Z,33.15
2023-02-12T07:21:45.143Z,40.30
2023-02-12T07:24:19.845Z,53.97
2023-02-12T07:26:48.694Z,86.40
2023-02-12T07:29:17.223Z,40.88
2023-02-12T07:31:44.926Z,52.63
2023-02-12T07:34:13.467Z,28.23
2023-02-12T07:36:41.269Z,31.83
2023-02-12T07:39:11.613Z,24.13
2023-02-12T07:41:39.729Z,13.93
2023-02-12T07:44:11.380Z,5.70
2023-02-12T07:46:47.821Z,2.80
2023-02-12T07:49:21.714Z,2.47
2023-02-12T07:51:50.201Z,6.38
2023-02-12T07:54:19.067Z,4.80
2023-02-12T07:56:47.469Z,5.20
2023-02-12T07:59:16.826Z,7.25
2023-02-12T08:01:53.985Z,6.75
2023-02-12T08:04:23.470Z,2.90
2023-02-12T08:06:54.681Z,1.88
2023-02-12T08:09:26.610Z,7.47
2023-02-12T08:11:54.350Z,5.13
2023-02-12T08:14:22.754Z,1.75
2023-02-12T08:16:50.690Z,2.85
2023-02-12T08:19:22.536Z,7.57
2023-02-12T08:21:52.820Z,7.20
2023-02-12T08:24:22.332Z,1.75
2023-02-12T08:26:50.597Z,5.97
2023-02-12T08:29:20.706Z,1.25
2023-02-12T08:31:49.828Z,1.45
2023-02-12T08:34:22.139Z,3.92
2023-02-12T08:36:50.627Z,4.25
2023-02-12T08:39:18.920Z,3.55
2023-02-12T08:41:47.275Z,3.70
2023-02-12T08:44:15.751Z,2.45
2023-02-12T08:46:48.108Z,2.92
2023-02-12T08:49:19.254Z,2.58
2023-02-12T08:51:50.104Z,1.00
2023-02-12T08:54:20.295Z,4.20
2023-02-12T08:56:51.449Z,3.15
2023-02-12T08:59:19.171Z,3.60
2023-02-12T09:01:47.338Z,5.30
2023-02-12T09:04:18.181Z,1.92
2023-02-12T09:06:46.461Z,1.33
2023-02-12T09:09:15.842Z,3.58
2023-02-12T09:11:44.817Z,4.40
2023-02-12T09:14:15.265Z,4.05
2023-02-12T09:16:43.186Z,3.22
2023-02-12T09:19:14.450Z,2.35
2023-02-12T09:21:42.789Z,2.40
2023-02-12T09:24:10.419Z,2.85
2023-02-12T09:26:39.347Z,2.10
2023-02-12T09:29:08.395Z,2.30
2023-02-12T09:31:36.714Z,2.00
2023-02-12T09:34:11.789Z,26.92
2023-02-12T09:36:40.648Z,2.92
2023-02-12T09:39:08.256Z,2.83
2023-02-12T09:41:48.711Z,2.90
2023-02-12T09:44:38.298Z,3.42
2023-02-12T09:47:11.726Z,2.55
2023-02-12T09:49:49.170Z,5.10
2023-02-12T09:52:18.235Z,4.25
2023-02-12T09:54:46.119Z,4.32
2023-02-12T09:57:29.769Z,5.45
2023-02-12T10:00:00.226Z,1.05
2023-02-12T10:02:28.205Z,1.02
2023-02-12T10:05:01.537Z,2.72
2023-02-12T10:07:45.127Z,4.45
2023-02-12T10:10:37.479Z,2.33
2023-02-12T10:13:19.278Z,1.70
2023-02-12T10:15:58.725Z,3.08
2023-02-12T10:18:57.332Z,2.30
2023-02-12T10:21:31.006Z,3.55
2023-02-12T10:24:18.891Z,1.85
2023-02-12T10:26:50.816Z,2.70
2023-02-12T10:29:38.810Z,1.08
2023-02-12T10:32:16.481Z,6.20
2023-02-12T10:34:44.235Z,17.88
2023-02-12T10:37:20.710Z,5.63
2023-02-12T10:39:55.800Z,4.75
2023-02-12T10:42:36.347Z,1.52
2023-02-12T10:45:04.658Z,1.70
2023-02-12T10:47:32.378Z,4.15
2023-02-12T10:50:01.496Z,3.63
2023-02-12T10:52:42.346Z,3.67
2023-02-12T10:55:25.758Z,1.13
2023-02-12T10:57:55.049Z,3.92
2023-02-12T11:00:34.730Z,1.83
2023-02-12T11:03:12.063Z,1.90
2023-02-12T11:05:42.011Z,1.73
2023-02-12T11:08:31.566Z,2.72
2023-02-12T11:11:06.840Z,3.38
2023-02-12T11:13:35.334Z,3.33
2023-02-12T11:16:03.530Z,4.57
2023-02-12T11:18:34.640Z,10.40
2023-02-12T11:21:11.822Z,5.90
2023-02-12T11:23:40.119Z,2.47
2023-02-12T11:26:19.828Z,2.33
2023-02-12T11:29:00.888Z,1.95
2023-02-12T11:31:35.332Z,1.13
2023-02-12T11:34:12.883Z,2.08
2023-02-12T11:36:46.389Z,4.82
2023-02-12T11:39:37.515Z,2.63
2023-02-12T11:42:23.456Z,4.65
2023-02-12T11:44:55.821Z,4.45
2023-02-12T11:47:31.134Z,2.20
2023-02-12T11:50:08.010Z,7.00
2023-02-12T11:52:36.872Z,1.15
2023-02-12T11:55:18.662Z,3.42
2023-02-12T11:57:51.347Z,1.27
2023-02-12T12:00:28.425Z,3.17
2023-02-12T12:03:11.662Z,3.78
2023-02-12T12:05:43.874Z,4.07
2023-02-12T12:08:34.177Z,3.33
2023-02-12T12:11:17.503Z,2.58
2023-02-12T12:15:01.189Z,14.65
2023-02-12T12:18:13.058Z,2.67
2023-02-12T12:20:55.519Z,2.47
2023-02-12T12:23:33.201Z,6.10
2023-02-12T12:26:04.939Z,5.15
2023-02-12T12:28:56.268Z,1.77
2023-02-12T12:31:39.390Z,2.70
2023-02-12T12:34:09.086Z,6.03
2023-02-12T12:37:03.791Z,2.75
2023-02-12T12:39:52.585Z,2.20
2023-02-12T12:42:23.335Z,2.90
2023-02-12T12:45:12.230Z,3.10
2023-02-12T12:48:01.343Z,2.33
2023-02-12T12:50:35.564Z,3.25
2023-02-12T12:53:05.424Z,3.80
2023-02-12T12:55:51.710Z,4.50
2023-02-12T12:58:35.808Z,3.53
2023-02-12T13:01:27.532Z,4.45
2023-02-12T13:04:05.825Z,4.93
2023-02-12T13:06:42.826Z,5.07
2023-02-12T13:09:30.378Z,7.43
2023-02-12T13:12:25.533Z,4.38
2023-02-12T13:15:02.222Z,6.82
2023-02-12T13:17:52.500Z,4.97
2023-02-12T13:20:29.038Z,0.90
2023-02-12T13:23:00.431Z,3.85
2023-02-12T13:28:02.811Z,9.35
2023-02-12T13:30:39.193Z,3.05
2023-02-12T13:33:22.530Z,1.90
2023-02-12T13:35:55.413Z,7.75
2023-02-12T13:38:30.469Z,4.43
2023-02-12T13:41:00.566Z,3.83
2023-02-12T13:43:57.344Z,11.85
2023-02-12T13:46:47.126Z,4.15
2023-02-12T13:49:42.770Z,9.00
2023-02-12T13:52:28.504Z,1.77
2023-02-12T13:55:11.401Z,9.10
2023-02-12T13:57:39.285Z,6.25
2023-02-12T14:00:30.311Z,14.57
2023-02-12T14:02:58.254Z,4.70
2023-02-12T14:05:29.970Z,10.43
2023-02-12T14:08:05.517Z,5.38
2023-02-12T14:10:39.654Z,10.30
2023-02-12T14:13:21.691Z,8.13
2023-02-12T14:15:56.750Z,9.13
2023-02-12T14:18:31.878Z,6.60
2023-02-12T14:21:11.633Z,3.55
2023-02-12T14:23:46.465Z,3.65
2023-02-12T14:26:15.509Z,9.65
2023-02-12T14:29:00.709Z,4.78
2023-02-12T14:31:37.823Z,5.53
2023-02-12T14:34:05.561Z,12.88
2023-02-12T14:36:33.196Z,14.80
2023-02-12T14:39:06.158Z,66.20
2023-02-12T14:41:38.175Z,13.82
2023-02-12T14:44:28.904Z,8.07
2023-02-12T14:46:57.128Z,8.50
2023-02-12T14:49:39.225Z,27.20
2023-02-12T14:52:17.977Z,16.40
2023-02-12T14:54:55.620Z,9.73
2023-02-12T14:57:38.263Z,62.95
2023-02-12T15:00:18.225Z,16.48
2023-02-12T15:02:49.880Z,24.63
2023-02-12T15:05:29.488Z,34.60
2023-02-12T15:08:17.026Z,16.83
2023-02-12T15:10:50.404Z,9.05
2023-02-12T15:13:23.456Z,82.35
2023-02-12T15:15:53.289Z,8.57
2023-02-12T15:19:09.439Z,8.38
2023-02-12T15:21:37.151Z,44.72
2023-02-12T15:24:11.586Z,19.92
2023-02-12T15:26:50.294Z,12.15
2023-02-12T15:29:24.215Z,7.45
2023-02-12T15:32:00.195Z,15.73
2023-02-12T15:34:30.617Z,11.45
2023-02-12T15:37:00.315Z,7.05
2023-02-12T15:39:29.008Z,7.30
2023-02-12T15:41:56.634Z,11.00
2023-02-12T15:44:31.588Z,14.23
2023-02-12T15:47:15.719Z,5.00
2023-02-12T15:49:43.807Z,5.30
2023-02-12T15:52:22.587Z,5.25
2023-02-12T15:54:50.257Z,7.88
2023-02-12T15:57:23.295Z,10.18
2023-02-12T15:59:52.985Z,11.20
2023-02-12T16:02:25.602Z,12.52
2023-02-12T16:04:53.131Z,10.13
2023-02-12T16:07:22.578Z,7.30
2023-02-12T16:09:51.174Z,6.22
2023-02-12T16:12:20.677Z,10.85
2023-02-12T16:14:50.124Z,4.95
2023-02-12T16:17:29.528Z,7.40
2023-02-12T16:20:01.043Z,8.48
2023-02-12T16:22:34.637Z,5.75
2023-02-12T16:25:02.632Z,23.00
2023-02-12T16:27:32.176Z,5.38
2023-02-12T16:30:20.904Z,5.38
2023-02-12T16:32:49.087Z,5.68
2023-02-12T16:35:16.870Z,7.63
2023-02-12T16:37:48.573Z,7.80
2023-02-12T16:40:16.623Z,4.15
2023-02-12T16:42:47.419Z,9.02
2023-02-12T16:45:34.754Z,11.68
2023-02-12T16:48:07.067Z,15.38
2023-02-12T16:50:43.746Z,5.50
2023-02-12T16:53:36.513Z,10.90
2023-02-12T16:56:04.922Z,11.32
2023-02-12T16:58:33.448Z,3.50
2023-02-12T17:01:02.633Z,7.00
2023-02-12T17:03:31.344Z,1.90
2023-02-12T17:05:59.378Z,3.40
2023-02-12T17:08:28.693Z,5.10
2023-02-12T17:10:56.290Z,5.47
2023-02-12T17:13:25.664Z,14.60
2023-02-12T17:15:56.317Z,2.97
2023-02-12T17:18:24.818Z,3.75
2023-02-12T17:20:57.090Z,11.13
2023-02-12T17:23:25.237Z,3.00
2023-02-12T17:25:52.997Z,1.10
2023-02-12T17:28:22.984Z,3.88
2023-02-12T17:30:51.381Z,5.20
2023-02-12T17:33:19.811Z,5.53
2023-02-12T17:35:47.491Z,2.65
2023-02-12T17:38:15.581Z,4.35
2023-02-12T17:40:43.123Z,2.15
2023-02-12T17:43:10.791Z,6.78
2023-02-12T17:45:45.390Z,5.38
2023-02-12T17:48:13.830Z,4.00
2023-02-12T17:50:41.765Z,3.80
2023-02-12T17:53:09.529Z,2.58
2023-02-12T17:55:42.795Z,2.15
2023-02-12T17:58:10.589Z,4.22
2023-02-12T18:00:40.328Z,1.55
2023-02-12T18:03:11.235Z,6.07
2023-02-12T18:05:43.137Z,5.78
2023-02-12T18:10:42.796Z,6.90
2023-02-12T18:13:10.795Z,8.50
2023-02-12T18:15:40.293Z,10.45
2023-02-12T18:18:08.481Z,16.05
2023-02-12T18:20:36.692Z,18.60
2023-02-12T18:23:04.830Z,8.98
2023-02-12T18:25:32.651Z,7.63
2023-02-12T18:28:01.679Z,2.78
2023-02-12T18:30:29.572Z,4.82
2023-02-12T18:32:57.485Z,5.50
2023-02-12T18:35:25.532Z,4.15
2023-02-12T18:37:53.302Z,6.80
2023-02-12T18:40:21.141Z,6.15
2023-02-12T18:42:52.499Z,4.97
2023-02-12T18:45:21.780Z,7.53
2023-02-12T18:47:49.353Z,7.13
2023-02-12T18:50:17.263Z,6.70
2023-02-12T18:52:45.728Z,11.65
2023-02-12T18:55:13.358Z,8.02
2023-02-12T18:57:40.928Z,9.10
2023-02-12T19:00:09.810Z,6.53
2023-02-12T19:02:37.470Z,3.85
2023-02-12T19:05:05.548Z,4.63
2023-02-12T19:07:33.169Z,3.10
2023-02-12T19:10:00.942Z,7.65
2023-02-12T19:12:29.410Z,2.13
2023-02-12T19:14:57.352Z,2.10
2023-02-12T19:17:25.264Z,5.07
2023-02-12T19:19:53.345Z,2.65
2023-02-12T19:22:20.995Z,13.80
2023-02-12T19:24:51.031Z,14.48
2023-02-12T19:27:18.853Z,5.88
2023-02-12T19:29:46.498Z,5.95
2023-02-12T19:32:14.464Z,8.38
2023-02-12T19:34:42.302Z,3.22
2023-02-12T19:37:11.796Z,5.25
2023-02-12T19:39:40.122Z,13.45
2023-02-12T19:42:07.782Z,20.17
2023-02-12T19:44:36.035Z,8.15
2023-02-12T19:47:03.929Z,8.60
2023-02-12T19:49:33.795Z,13.65
2023-02-12T19:52:01.561Z,13.30
2023-02-12T19:54:29.453Z,5.35
2023-02-12T19:56:57.329Z,24.65
2023-02-12T19:59:25.480Z,1.73
2023-02-12T20:01:53.848Z,13.45
2023-02-12T20:04:22.380Z,4.35
2023-02-12T20:06:51.320Z,9.70
2023-02-12T20:09:19.842Z,10.82
2023-02-12T20:11:47.594Z,8.48
2023-02-12T20:14:15.708Z,15.45
2023-02-12T20:16:46.807Z,5.45
2023-02-12T20:19:25.284Z,8.30
2023-02-12T20:21:56.814Z,10.55
2023-02-12T20:24:26.399Z,7.68
2023-02-12T20:26:54.296Z,5.68
2023-02-12T20:29:22.662Z,8.27
2023-02-12T20:31:50.484Z,7.10
2023-02-12T20:34:18.950Z,8.02
2023-02-12T20:36:47.189Z,10.95
2023-02-12T20:39:16.919Z,4.65
2023-02-12T20:41:45.365Z,4.82
2023-02-12T20:44:15.947Z,2.65
2023-02-12T20:46:47.226Z,4.88
2023-02-12T20:51:43.238Z,9.07
2023-02-12T20:54:11.132Z,5.55
2023-02-12T20:56:39.162Z,5.38
2023-02-12T20:59:07.204Z,4.82
2023-02-12T21:01:39.396Z,6.88
2023-02-12T21:04:09.428Z,5.72
2023-02-12T21:06:39.497Z,5.40
2023-02-12T21:09:09.697Z,5.82
2023-02-12T21:11:37.351Z,3.78
2023-02-12T21:14:21.407Z,3.65
2023-02-12T21:16:50.153Z,2.83
2023-02-12T21:19:18.989Z,3.25
2023-02-12T21:21:47.931Z,5.60
2023-02-12T21:24:18.379Z,3.78
2023-02-12T21:26:46.071Z,2.47
2023-02-12T21:29:13.805Z,5.40
2023-02-12T21:31:45.706Z,9.50
2023-02-12T21:34:18.434Z,8.23
2023-02-12T21:36:46.937Z,10.18
2023-02-12T21:39:24.431Z,8.60
2023-02-12T21:41:54.195Z,11.63
2023-02-12T21:44:22.345Z,7.80
2023-02-12T21:46:49.998Z,13.57
2023-02-12T21:51:58.258Z,6.53
2023-02-12T21:54:25.923Z,7.07
2023-02-12T21:56:53.756Z,11.27
2023-02-12T21:59:22.477Z,8.23
2023-02-12T22:01:51.664Z,7.82
2023-02-12T22:04:19.537Z,4.78
2023-02-12T22:06:48.738Z,10.25
2023-02-12T22:09:18.347Z,10.02
2023-02-12T22:11:46.373Z,6.38
2023-02-12T22:14:15.674Z,5.82
2023-02-12T22:16:44.944Z,5.45
2023-02-12T22:19:12.936Z,5.75
2023-02-12T22:21:41.100Z,8.45
2023-02-12T22:24:12.322Z,3.83
2023-02-12T22:26:39.959Z,6.93
2023-02-12T22:29:09.895Z,10.57
2023-02-12T22:31:38.989Z,11.00
2023-02-12T22:34:08.579Z,31.65
2023-02-12T22:36:38.366Z,4.50
2023-02-12T22:39:06.094Z,5.25
2023-02-12T22:41:34.025Z,7.82
2023-02-12T22:44:02.487Z,25.52
2023-02-12T22:46:30.347Z,7.05
2023-02-12T22:49:00.340Z,6.10
2023-02-12T22:51:29.675Z,8.38
2023-02-12T22:53:57.754Z,8.70
2023-02-12T22:56:25.879Z,11.32
2023-02-12T22:58:57.544Z,14.07
2023-02-12T23:01:30.400Z,28.70
2023-02-12T23:03:58.139Z,6.20
2023-02-12T23:06:27.535Z,3.60
2023-02-12T23:08:59.107Z,5.05
2023-02-12T23:11:28.257Z,5.38
2023-02-12T23:13:56.053Z,4.50
2023-02-12T23:16:23.924Z,2.55
2023-02-12T23:18:58.679Z,5.85
2023-02-12T23:21:26.908Z,5.05
2023-02-12T23:23:54.667Z,5.13
2023-02-12T23:26:22.291Z,7.38
2023-02-12T23:28:50.040Z,7.03
2023-02-12T23:31:18.057Z,6.70
2023-02-12T23:33:45.792Z,16.33
2023-02-12T23:36:13.682Z,7.05
2023-02-12T23:38:42.433Z,11.18
2023-02-12T23:41:09.963Z,6.47
2023-02-12T23:43:39.398Z,55.33
2023-02-12T23:46:08.342Z,17.60
2023-02-12T23:48:36.761Z,7.05
2023-02-12T23:51:04.625Z,25.98
2023-02-12T23:53:32.220Z,15.73
2023-02-12T23:55:59.813Z,13.68
2023-02-12T23:58:27.524Z,12.95
